Time;durP1;ratioP1;P1;durP2;ratioP2;P2;SDS_P1;SDS_P2;PMS_P1;PMS_P2;Temp;Humidity;BMP_temperature;BMP_pressure;BME280_temperature;BME280_humidity;BME280_pressure;Samples;Min_cycle;Max_cycle;Signal;HPM_P1;HPM_P2
2022/11/02 00:00:28;;;;;;;;;3.00;2.00;;;;;15.35;63.48;101314.22;4958875;28;45790;-60
2022/11/02 00:02:53;;;;;;;;;7.00;3.20;;;;;15.31;63.69;101300.00;4950665;28;45654;-61
2022/11/02 00:05:23;;;;;;;;;0.75;0.75;;;;;15.34;63.42;101302.34;4974471;28;45307;-61
2022/11/02 00:07:49;;;;;;;;;3.60;2.80;;;;;15.15;63.42;101271.91;4975917;28;45405;-60
2022/11/02 00:10:15;;;;;;;;;2.00;2.00;;;;;15.37;64.29;101314.84;4975514;28;45490;-61
2022/11/02 00:12:40;;;;;;;;;3.00;2.00;;;;;15.34;63.75;101307.88;4976101;28;45307;-61
2022/11/02 00:15:07;;;;;;;;;1.00;1.00;;;;;15.04;64.04;101264.38;4975807;28;45405;-61
2022/11/02 00:17:33;;;;;;;;;4.20;2.00;;;;;15.28;63.88;101308.78;4942085;28;45945;-61
2022/11/02 00:19:58;;;;;;;;;4.00;1.75;;;;;15.08;64.08;101281.34;4974697;28;45338;-61
2022/11/02 00:22:24;;;;;;;;;2.00;1.00;;;;;15.22;63.84;101301.41;4978977;28;45400;-61
2022/11/02 00:24:49;;;;;;;;;2.00;1.00;;;;;15.22;64.31;101318.00;4994007;28;48565;-60
2022/11/02 00:27:15;;;;;;;;;1.50;1.00;;;;;14.48;64.15;101200.72;4993786;28;45290;-61
2022/11/02 00:29:40;;;;;;;;;3.00;2.00;;;;;15.18;63.59;101321.22;4995582;28;45248;-61
2022/11/02 00:32:06;;;;;;;;;3.50;3.50;;;;;15.17;63.98;101326.97;4995778;28;45172;-61
2022/11/02 00:34:31;;;;;;;;;2.50;2.50;;;;;15.15;63.62;101331.88;4994984;28;46378;-61
2022/11/02 00:36:57;;;;;;;;;3.50;3.50;;;;;15.16;63.36;101334.41;4995041;28;45451;-61
2022/11/02 00:39:22;;;;;;;;;4.25;3.00;;;;;15.14;63.37;101332.94;4995737;28;45772;-60
2022/11/02 00:41:47;;;;;;;;;5.75;2.75;;;;;14.71;62.89;101271.91;4995712;28;45889;-60
2022/11/02 00:44:13;;;;;;;;;1.50;1.00;;;;;15.15;63.18;101337.41;5010036;28;46243;-61
2022/11/02 00:46:39;;;;;;;;;3.25;2.25;;;;;15.10;62.70;101331.72;4995117;28;45300;-60
2022/11/02 00:49:04;;;;;;;;;2.50;1.50;;;;;14.80;62.99;101293.75;4997852;28;45358;-60
2022/11/02 00:51:30;;;;;;;;;1.50;1.50;;;;;15.08;62.73;101343.00;4997721;28;45510;-60
2022/11/02 00:53:55;;;;;;;;;1.00;1.00;;;;;15.04;62.62;101348.16;4998217;28;45373;-60
2022/11/02 00:56:21;;;;;;;;;3.00;2.75;;;;;15.00;62.62;101351.59;4998403;28;45710;-62
2022/11/02 00:58:46;;;;;;;;;3.00;1.75;;;;;14.88;62.65;101337.66;4998633;28;45428;-61
2022/11/02 01:01:12;;;;;;;;;2.25;2.25;;;;;14.92;62.66;101355.50;4997284;28;45705;-61
2022/11/02 01:03:37;;;;;;;;;2.00;1.00;;;;;14.80;62.96;101340.72;4997118;28;46202;-62
2022/11/02 01:06:10;;;;;;;;;2.00;0.50;;;;;14.88;62.68;101360.63;4997152;28;45445;-61
2022/11/02 01:08:36;;;;;;;;;1.00;1.00;;;;;14.89;62.58;101367.00;4996858;28;45303;-60
2022/11/02 01:11:09;;;;;;;;;0.00;0.00;;;;;14.86;62.37;101362.78;4998517;28;45412;-60
2022/11/02 01:13:35;;;;;;;;;3.00;0.60;;;;;14.86;62.66;101365.53;4996549;28;46218;-60
2022/11/02 01:16:03;;;;;;;;;3.00;1.25;;;;;14.87;62.78;101375.53;4998061;28;45410;-60
2022/11/02 01:18:28;;;;;;;;;1.00;1.00;;;;;14.80;62.84;101357.28;4997353;28;45394;-60
2022/11/02 01:20:57;;;;;;;;;3.25;1.75;;;;;14.62;62.89;101329.34;4997867;28;45349;-61
2022/11/02 01:23:23;;;;;;;;;2.00;1.80;;;;;14.25;62.54;101278.66;4987255;28;45402;-62
2022/11/02 01:25:48;;;;;;;;;0.50;0.50;;;;;14.56;62.85;101330.25;4976825;28;45254;-61
2022/11/02 01:28:14;;;;;;;;;1.00;1.00;;;;;14.81;62.87;101381.09;4978648;28;45371;-61
2022/11/02 01:30:39;;;;;;;;;2.00;1.50;;;;;14.54;62.97;101337.91;4977370;28;45538;-61
2022/11/02 01:33:05;;;;;;;;;2.50;1.50;;;;;14.78;62.97;101382.38;4976438;28;45504;-61
2022/11/02 01:35:31;;;;;;;;;1.00;1.00;;;;;14.74;62.87;101387.50;4978003;28;45463;-61
2022/11/02 01:37:56;;;;;;;;;6.50;1.50;;;;;14.71;63.14;101379.66;4977914;28;45406;-60
2022/11/02 01:40:22;;;;;;;;;1.75;1.00;;;;;14.53;63.07;101350.03;4978496;28;45256;-61
2022/11/02 01:42:48;;;;;;;;;2.20;1.40;;;;;14.69;63.21;101383.72;4960678;28;46287;-60
2022/11/02 01:45:14;;;;;;;;;0.25;0.25;;;;;14.71;63.75;101387.94;4977503;28;45319;-60
2022/11/02 01:47:41;;;;;;;;;4.75;2.00;;;;;14.70;63.63;101401.97;4978386;28;45301;-62
2022/11/02 01:50:27;;;;;;;;;2.40;0.80;;;;;14.62;63.97;101390.13;4978071;28;45517;-61
2022/11/02 01:52:52;;;;;;;;;3.20;1.00;;;;;14.50;63.75;101362.38;4977145;28;45434;-62
2022/11/02 01:55:20;;;;;;;;;1.00;1.00;;;;;14.64;63.46;101398.19;4976353;28;45531;-60
2022/11/02 01:57:51;;;;;;;;;2.60;1.00;;;;;14.59;63.37;101392.47;4960115;28;45465;-61
2022/11/02 02:00:17;;;;;;;;;2.80;2.00;;;;;14.52;63.56;101397.22;4976448;28;45768;-60
2022/11/02 02:02:54;;;;;;;;;3.75;2.25;;;;;14.51;63.81;101423.97;4976366;28;45894;-62
2022/11/02 02:05:21;;;;;;;;;3.00;2.00;;;;;14.28;63.91;101386.72;4944258;28;45419;-61
2022/11/02 02:07:46;;;;;;;;;0.80;0.80;;;;;14.41;64.44;101410.66;4976419;28;45339;-61
2022/11/02 02:10:12;;;;;;;;;1.75;1.75;;;;;14.45;64.53;101420.19;4976500;28;45373;-60
2022/11/02 02:12:38;;;;;;;;;1.00;1.00;;;;;14.36;64.33;101416.84;4976320;28;46595;-61
2022/11/02 02:15:04;;;;;;;;;4.40;1.60;;;;;14.40;64.28;101427.47;4976221;28;45295;-61
2022/11/02 02:17:42;;;;;;;;;4.20;1.80;;;;;14.43;64.56;101430.63;4975921;28;45283;-61
2022/11/02 02:20:16;;;;;;;;;4.60;2.00;;;;;14.44;64.63;101423.16;4977351;28;45440;-60
2022/11/02 02:22:56;;;;;;;;;2.80;1.60;;;;;14.44;64.05;101426.78;4960302;28;48727;-61
2022/11/02 02:25:43;;;;;;;;;2.00;1.40;;;;;14.41;64.04;101427.22;4995449;28;45771;-61
2022/11/02 02:28:37;;;;;;;;;2.00;2.00;;;;;14.31;64.32;101413.06;4997174;28;45165;-62
2022/11/02 02:31:09;;;;;;;;;2.00;2.00;;;;;14.41;63.72;101434.66;4996193;28;45974;-61
2022/11/02 02:33:38;;;;;;;;;1.00;1.00;;;;;14.37;64.48;101437.84;4996436;28;45534;-61
2022/11/02 02:36:12;;;;;;;;;2.20;1.00;;;;;14.34;64.31;101429.16;4996931;28;45280;-60
2022/11/02 02:38:48;;;;;;;;;2.80;1.00;;;;;14.38;64.36;101449.75;4996104;28;45868;-60
2022/11/02 02:41:41;;;;;;;;;2.00;1.60;;;;;14.33;64.02;101447.66;4996133;28;45272;-61
2022/11/02 02:44:14;;;;;;;;;2.20;2.00;;;;;14.32;63.96;101457.03;4994847;28;46859;-60
2022/11/02 02:46:48;;;;;;;;;2.00;2.00;;;;;14.03;64.43;101430.81;4966677;28;45523;-61
2022/11/02 02:49:17;;;;;;;;;5.60;1.40;;;;;14.13;64.34;101456.03;4995842;28;45408;-60
2022/11/02 02:51:42;;;;;;;;;1.20;1.20;;;;;14.11;64.44;101433.31;4996800;28;45169;-61
2022/11/02 02:54:11;;;;;;;;;3.75;1.50;;;;;14.16;64.30;101440.94;4979177;28;46861;-61
2022/11/02 02:56:39;;;;;;;;;1.20;0.20;;;;;14.16;64.31;101450.09;4978595;28;45384;-60
2022/11/02 02:59:07;;;;;;;;;1.60;1.60;;;;;14.02;64.26;101440.13;4995831;28;45408;-60
2022/11/02 03:01:33;;;;;;;;;3.60;2.00;;;;;14.13;64.82;101442.22;4979355;28;45539;-60
2022/11/02 03:03:58;;;;;;;;;0.50;0.50;;;;;14.13;64.61;101453.25;4979027;28;47901;-61
2022/11/02 03:06:29;;;;;;;;;4.75;2.25;;;;;13.62;64.22;101369.41;4995097;28;45327;-61
2022/11/02 03:09:07;;;;;;;;;2.60;1.00;;;;;14.05;64.29;101453.50;4979129;28;45417;-60
2022/11/02 03:11:33;;;;;;;;;6.60;2.40;;;;;13.82;64.51;101432.78;4995727;28;45276;-63
2022/11/02 03:14:11;;;;;;;;;0.40;0.40;;;;;14.02;65.07;101465.84;4996291;28;45565;-60
2022/11/02 03:16:57;;;;;;;;;3.00;1.40;;;;;14.07;64.66;101470.69;4996170;28;45312;-60
2022/11/02 03:19:27;;;;;;;;;2.80;1.40;;;;;13.86;64.39;101431.28;4995545;28;45416;-59
2022/11/02 03:22:00;;;;;;;;;2.20;2.20;;;;;13.90;64.53;101451.88;4979323;28;45450;-60
2022/11/02 03:24:32;;;;;;;;;3.00;2.00;;;;;13.99;64.60;101476.47;4961929;28;48806;-59
2022/11/02 03:27:16;;;;;;;;;3.40;2.00;;;;;13.99;64.69;101469.03;4995036;28;45343;-60
2022/11/02 03:30:27;;;;;;;;;3.00;1.40;;;;;13.99;65.06;101476.47;4996576;28;45536;-60
2022/11/02 03:33:05;;;;;;;;;5.40;2.60;;;;;13.87;65.08;101481.81;5130064;27;45400;-61
2022/11/02 03:36:03;;;;;;;;;5.80;2.00;;;;;13.94;65.19;101490.91;5111767;27;45365;-62
2022/11/02 03:38:36;;;;;;;;;1.20;1.20;;;;;13.90;64.83;101487.75;5112585;27;45466;-61
2022/11/02 03:41:02;;;;;;;;;2.00;1.00;;;;;13.82;65.04;101469.50;5111707;27;45280;-61
2022/11/02 03:43:27;;;;;;;;;1.00;1.00;;;;;13.78;65.12;101462.72;5111429;27;46400;-61
2022/11/02 03:45:54;;;;;;;;;3.50;2.50;;;;;13.91;65.30;101497.72;5112426;27;45465;-61
2022/11/02 03:48:22;;;;;;;;;2.20;2.20;;;;;13.86;65.38;101502.19;5111787;27;45590;-60
2022/11/02 03:50:51;;;;;;;;;5.20;1.00;;;;;13.83;65.26;101503.47;5111329;27;45555;-61
2022/11/02 03:53:29;;;;;;;;;2.20;2.00;;;;;13.76;65.29;101513.66;5112435;27;45344;-60
2022/11/02 03:55:59;;;;;;;;;3.00;2.00;;;;;13.68;65.13;101506.47;5112434;27;45787;-60
2022/11/02 03:58:24;;;;;;;;;3.20;3.20;;;;;13.78;64.90;101517.06;5094391;27;45481;-61
2022/11/02 04:00:56;;;;;;;;;3.75;2.50;;;;;13.82;64.86;101518.31;5111503;27;45565;-62
2022/11/02 04:03:22;;;;;;;;;2.20;1.40;;;;;13.81;65.06;101514.72;5094009;27;47415;-60
2022/11/02 04:05:47;;;;;;;;;3.75;1.75;;;;;13.86;64.70;101521.50;5094051;27;45624;-61
2022/11/02 04:08:20;;;;;;;;;3.00;2.00;;;;;13.53;64.64;101485.47;5110848;27;45315;-61
2022/11/02 04:16:19;;;;;;;;;1.00;0.60;;;;;13.83;64.64;101542.94;5111148;27;45336;-61
2022/11/02 04:21:28;;;;;;;;;5.40;2.80;;;;;13.73;65.03;101547.19;5112017;27;45447;-62
2022/11/02 04:26:38;;;;;;;;;3.00;1.20;;;;;13.72;64.55;101548.25;5112159;27;45306;-61
2022/11/02 04:29:03;;;;;;;;;3.00;3.00;;;;;13.72;64.94;101551.00;5111882;27;45305;-60
2022/11/02 04:31:29;;;;;;;;;5.00;2.00;;;;;13.68;64.62;101551.44;5112034;27;45197;-61
2022/11/02 04:33:57;;;;;;;;;3.75;1.75;;;;;13.67;64.97;101560.75;5111832;27;45963;-60
2022/11/02 04:36:22;;;;;;;;;4.20;1.00;;;;;13.65;64.61;101554.63;5111507;27;45383;-61
2022/11/02 04:38:48;;;;;;;;;4.25;2.00;;;;;13.72;64.35;101562.06;5110841;27;45453;-61
2022/11/02 04:43:59;;;;;;;;;2.40;1.20;;;;;13.67;64.07;101573.72;5099155;27;45945;-61
2022/11/02 04:46:26;;;;;;;;;1.50;1.50;;;;;13.62;64.52;101577.13;5079049;27;45467;-60
2022/11/02 04:48:52;;;;;;;;;2.20;0.80;;;;;13.37;64.93;101544.63;5098239;27;45343;-61
2022/11/02 04:51:19;;;;;;;;;2.00;2.00;;;;;13.36;64.46;101542.94;5098185;27;45572;-62
2022/11/02 04:53:45;;;;;;;;;1.20;1.20;;;;;13.60;64.57;101572.88;5096266;27;46867;-61
2022/11/02 04:56:11;;;;;;;;;4.00;2.20;;;;;13.65;64.07;101587.72;5096432;27;45661;-61
2022/11/02 04:58:36;;;;;;;;;3.50;3.25;;;;;13.64;64.50;101577.75;5097800;27;45268;-61
2022/11/02 05:01:10;;;;;;;;;0.75;0.75;;;;;13.68;64.02;101590.03;5096891;27;45809;-60
2022/11/02 05:03:35;;;;;;;;;2.80;2.00;;;;;13.71;63.78;101593.47;5096525;27;46330;-61
2022/11/02 05:06:01;;;;;;;;;4.75;3.50;;;;;13.63;64.04;101597.28;5097842;27;45785;-62
2022/11/02 05:08:26;;;;;;;;;1.00;0.25;;;;;13.42;64.16;101561.38;5096461;27;45351;-60
2022/11/02 05:10:56;;;;;;;;;5.50;3.75;;;;;13.59;64.63;101591.31;5097702;27;45535;-60
2022/11/02 05:13:22;;;;;;;;;2.40;1.60;;;;;13.35;64.47;101567.94;5097466;27;45770;-61
2022/11/02 05:15:48;;;;;;;;;3.40;2.40;;;;;13.20;64.56;101570.88;5096141;27;45509;-61
2022/11/02 05:18:13;;;;;;;;;3.00;1.25;;;;;13.40;64.62;101610.38;5096793;27;45339;-60
2022/11/02 05:20:39;;;;;;;;;5.50;2.25;;;;;13.44;65.22;101621.00;5097592;27;45253;-61
2022/11/02 05:23:05;;;;;;;;;3.00;2.25;;;;;13.40;64.99;101615.06;5095752;27;47063;-62
2022/11/02 05:25:31;;;;;;;;;2.60;1.20;;;;;13.45;65.00;101611.66;5097170;27;45379;-61
2022/11/02 05:27:56;;;;;;;;;3.00;2.20;;;;;13.47;65.17;101621.44;5097267;27;45336;-62
2022/11/02 05:30:22;;;;;;;;;4.00;3.00;;;;;13.47;65.41;101623.34;5113320;27;45585;-62
2022/11/02 05:32:47;;;;;;;;;6.75;2.00;;;;;13.49;64.61;101627.59;5096895;27;45359;-60
2022/11/02 05:35:13;;;;;;;;;6.00;3.50;;;;;13.34;64.72;101593.81;5097636;27;45305;-61
2022/11/02 05:37:38;;;;;;;;;5.25;2.25;;;;;13.52;64.74;101624.44;5097303;27;45516;-60
2022/11/02 05:40:05;;;;;;;;;5.00;2.00;;;;;13.52;64.91;101632.72;5078280;27;46315;-60
2022/11/02 05:42:30;;;;;;;;;4.20;2.40;;;;;13.34;64.64;101608.44;5095491;27;46314;-60
2022/11/02 05:44:56;;;;;;;;;3.25;3.25;;;;;13.52;65.09;101643.75;5097301;27;45480;-60
2022/11/02 05:47:21;;;;;;;;;6.00;3.00;;;;;13.45;64.81;101634.53;5097418;27;45408;-60
2022/11/02 05:49:47;;;;;;;;;8.00;2.00;;;;;13.51;64.92;101639.25;5096813;27;45422;-60
2022/11/02 05:52:12;;;;;;;;;3.00;3.00;;;;;13.51;64.47;101638.44;5097012;27;45459;-60
2022/11/02 05:54:38;;;;;;;;;3.00;3.00;;;;;13.23;65.30;101609.91;5096065;27;45364;-62
2022/11/02 05:57:03;;;;;;;;;5.50;3.25;;;;;13.45;65.02;101640.06;5096785;27;45378;-62
2022/11/02 05:59:28;;;;;;;;;3.50;3.50;;;;;13.48;64.68;101642.44;5097271;27;45218;-61
2022/11/02 06:01:54;;;;;;;;;4.75;3.25;;;;;13.49;65.10;101646.91;5096507;27;46022;-61
2022/11/02 06:04:19;;;;;;;;;4.00;1.75;;;;;13.46;64.99;101641.81;5095709;27;45339;-61
2022/11/02 06:06:45;;;;;;;;;2.00;2.00;;;;;13.46;65.15;101636.31;5095448;27;45356;-61
2022/11/02 06:09:10;;;;;;;;;5.75;3.25;;;;;13.26;65.18;101611.41;5096963;27;45365;-60
2022/11/02 06:11:36;;;;;;;;;8.25;1.75;;;;;13.44;65.16;101641.13;5097050;27;46182;-60
2022/11/02 06:14:02;;;;;;;;;3.00;2.25;;;;;13.42;65.17;101635.84;5096344;27;45749;-60
2022/11/02 06:16:28;;;;;;;;;6.40;3.00;;;;;13.29;65.54;101630.31;5112906;27;45214;-60
2022/11/02 06:18:53;;;;;;;;;7.25;5.00;;;;;13.31;65.30;101630.94;5078626;27;45417;-60
2022/11/02 06:21:19;;;;;;;;;6.00;4.75;;;;;13.21;65.20;101606.53;5095286;27;46574;-60
2022/11/02 06:23:46;;;;;;;;;5.25;2.75;;;;;13.37;65.81;101645.78;5096206;27;45384;-60
2022/11/02 06:26:12;;;;;;;;;4.20;3.00;;;;;13.37;65.94;101646.63;5096566;27;45462;-61
2022/11/02 06:28:37;;;;;;;;;5.50;3.50;;;;;13.07;65.63;101593.78;5097126;27;45322;-61
2022/11/02 06:31:03;;;;;;;;;5.25;3.50;;;;;13.38;65.75;101667.63;5077306;27;45481;-62
2022/11/02 06:33:28;;;;;;;;;5.25;3.00;;;;;13.32;65.54;101662.94;5096106;27;45337;-61
2022/11/02 06:35:54;;;;;;;;;4.00;3.00;;;;;13.31;65.58;101669.53;5095294;27;45237;-60
2022/11/02 06:38:20;;;;;;;;;4.25;3.00;;;;;13.33;65.67;101674.84;5096254;27;45313;-61
2022/11/02 06:40:55;;;;;;;;;3.75;2.00;;;;;13.07;65.53;101624.09;5092614;27;45956;-61
2022/11/02 06:43:21;;;;;;;;;10.80;5.40;;;;;13.32;66.19;101668.47;5114471;27;45467;-61
2022/11/02 06:45:46;;;;;;;;;6.50;5.50;;;;;13.27;65.79;101668.22;5113822;27;45221;-62
2022/11/02 06:48:12;;;;;;;;;6.25;4.00;;;;;13.30;66.08;101670.59;5116659;27;45335;-61
2022/11/02 06:50:37;;;;;;;;;6.00;3.50;;;;;13.27;65.62;101654.44;5116542;27;46454;-60
2022/11/02 06:53:03;;;;;;;;;5.00;2.75;;;;;13.33;65.93;101667.41;5115954;27;45692;-61
2022/11/02 06:55:28;;;;;;;;;5.50;2.50;;;;;12.97;65.77;101621.72;5116504;27;45466;-60
2022/11/02 06:57:54;;;;;;;;;5.75;2.75;;;;;13.21;65.60;101660.78;5116758;27;45320;-61
2022/11/02 07:00:19;;;;;;;;;5.25;3.50;;;;;13.32;65.74;101690.53;5097688;27;46441;-60
2022/11/02 07:02:45;;;;;;;;;3.00;2.75;;;;;13.10;65.45;101653.97;5114771;27;45386;-61
2022/11/02 07:05:11;;;;;;;;;6.00;3.00;;;;;13.27;65.64;101693.03;5116542;27;45346;-60
2022/11/02 07:07:36;;;;;;;;;6.25;3.75;;;;;13.29;65.46;101696.47;5116298;27;45509;-62
2022/11/02 07:10:03;;;;;;;;;3.50;2.25;;;;;13.29;65.33;101696.47;5114551;27;45572;-62
2022/11/02 07:12:32;;;;;;;;;2.80;1.60;;;;;13.22;65.58;101684.53;5115926;27;45239;-60
2022/11/02 07:14:58;;;;;;;;;4.60;4.00;;;;;13.06;65.63;101664.56;5116296;27;45321;-60
2022/11/02 07:17:23;;;;;;;;;4.00;3.00;;;;;13.27;65.51;101693.03;5115963;27;45452;-60
2022/11/02 07:19:49;;;;;;;;;5.50;3.00;;;;;13.29;65.36;101688.19;5116254;27;45646;-60
2022/11/02 07:22:14;;;;;;;;;4.75;3.75;;;;;13.28;65.34;101690.09;5114003;27;45458;-60
2022/11/02 07:24:40;;;;;;;;;7.50;3.75;;;;;13.32;65.29;101693.28;5105587;27;45361;-60
2022/11/02 07:27:05;;;;;;;;;4.25;4.00;;;;;13.18;65.38;101670.31;5095792;27;45319;-60
2022/11/02 07:29:31;;;;;;;;;3.25;3.25;;;;;13.32;65.06;101701.56;5093905;27;46072;-60
2022/11/02 07:31:56;;;;;;;;;5.00;4.00;;;;;13.33;65.22;101705.16;5095244;27;45368;-61
2022/11/02 07:34:22;;;;;;;;;3.00;2.50;;;;;13.36;65.05;101710.25;5093992;27;45359;-61
2022/11/02 07:36:48;;;;;;;;;2.50;2.50;;;;;13.11;65.11;101670.31;5077268;27;45258;-61
2022/11/02 07:39:13;;;;;;;;;4.00;4.00;;;;;13.14;65.28;101667.13;5111047;27;47532;-61
2022/11/02 07:41:38;;;;;;;;;6.75;4.75;;;;;13.45;64.94;101710.94;5094187;27;45341;-61
2022/11/02 07:44:04;;;;;;;;;7.00;3.25;;;;;13.46;64.67;101716.28;5087050;27;46181;-60
2022/11/02 07:46:30;;;;;;;;;3.25;2.00;;;;;13.18;64.88;101663.97;5092246;27;45219;-60
2022/11/02 07:48:55;;;;;;;;;3.75;2.25;;;;;13.47;65.07;101714.34;5108444;27;45710;-61
2022/11/02 07:51:21;;;;;;;;;2.50;2.00;;;;;13.28;65.00;101684.56;5115441;27;45353;-60
2022/11/02 07:53:46;;;;;;;;;4.75;4.50;;;;;13.43;65.27;101697.34;5111316;27;45528;-60
2022/11/02 07:56:12;;;;;;;;;5.25;3.25;;;;;13.53;65.26;101713.53;5114857;27;45392;-61
2022/11/02 07:58:38;;;;;;;;;4.75;2.50;;;;;13.50;65.25;101711.19;5114352;27;45664;-60
2022/11/02 08:01:03;;;;;;;;;8.75;5.25;;;;;13.49;65.30;101720.50;5114489;27;45340;-60
2022/11/02 08:03:29;;;;;;;;;5.75;4.75;;;;;13.03;65.67;101637.44;5115131;27;45550;-64
2022/11/02 08:05:54;;;;;;;;;4.00;3.50;;;;;13.55;65.40;101725.19;5114532;27;45415;-61
2022/11/02 08:08:21;;;;;;;;;10.25;6.75;;;;;13.57;65.59;101730.50;5115274;27;47344;-61
2022/11/02 08:10:48;;;;;;;;;3.20;2.40;;;;;13.58;65.17;101726.69;5113735;27;45354;-61
2022/11/02 08:13:15;;;;;;;;;5.00;3.00;;;;;13.46;65.59;101710.75;5114186;27;45401;-60
2022/11/02 08:15:41;;;;;;;;;3.40;3.40;;;;;13.48;65.63;101722.44;5114208;27;45348;-60
2022/11/02 08:18:09;;;;;;;;;3.50;3.50;;;;;13.46;66.20;101724.56;5114711;27;45472;-59
2022/11/02 08:20:34;;;;;;;;;6.20;4.00;;;;;13.41;66.15;101725.13;5100428;27;45848;-62
2022/11/02 08:23:00;;;;;;;;;5.75;3.00;;;;;13.42;66.47;101718.56;5118762;27;45450;-64
2022/11/02 08:25:26;;;;;;;;;5.00;5.00;;;;;13.44;66.13;101720.25;5107142;27;45325;-62
2022/11/02 08:27:53;;;;;;;;;7.00;5.00;;;;;13.47;66.54;101725.38;5096429;27;48673;-62
2022/11/02 08:30:19;;;;;;;;;4.60;4.00;;;;;13.48;66.33;101732.59;5096931;27;45317;-60
2022/11/02 08:32:44;;;;;;;;;3.75;2.25;;;;;13.48;66.29;101733.44;5097619;27;45259;-59
2022/11/02 08:35:10;;;;;;;;;3.50;3.50;;;;;13.40;66.55;101717.06;5114386;27;45641;-59
2022/11/02 08:37:35;;;;;;;;;4.25;3.00;;;;;13.50;66.37;101736.00;5098086;27;45251;-59
2022/11/02 08:40:01;;;;;;;;;4.00;2.25;;;;;13.53;66.43;101732.81;5098303;27;45320;-59
2022/11/02 08:42:26;;;;;;;;;4.25;4.25;;;;;13.49;66.63;101726.00;5098309;27;45318;-59
2022/11/02 08:44:52;;;;;;;;;4.25;4.00;;;;;13.37;66.75;101710.06;5098394;27;45312;-59
2022/11/02 08:47:17;;;;;;;;;3.75;3.75;;;;;13.31;66.17;101704.50;5098174;27;45732;-59
2022/11/02 08:49:43;;;;;;;;;3.25;3.00;;;;;13.56;66.25;101735.19;5097737;27;45364;-59
2022/11/02 08:52:08;;;;;;;;;3.25;3.25;;;;;13.41;66.52;101711.31;5098383;27;45760;-59
2022/11/02 08:54:34;;;;;;;;;9.00;7.25;;;;;13.57;66.53;101736.88;5113865;27;45383;-59
2022/11/02 08:56:59;;;;;;;;;6.25;3.00;;;;;13.55;67.13;101733.47;5098015;27;46259;-60
2022/11/02 08:59:25;;;;;;;;;7.25;6.50;;;;;13.54;66.67;101732.63;5096393;27;45493;-60
2022/11/02 09:01:50;;;;;;;;;4.00;4.00;;;;;13.62;66.31;101739.00;5097947;27;45335;-58
2022/11/02 09:04:16;;;;;;;;;5.00;3.25;;;;;13.59;65.81;101732.00;5097917;27;45432;-59
2022/11/02 09:06:41;;;;;;;;;4.25;4.00;;;;;13.59;65.56;101729.25;5092896;27;45445;-60
2022/11/02 09:09:07;;;;;;;;;8.50;3.25;;;;;13.64;65.46;101735.00;5094669;27;45530;-58
2022/11/02 09:11:32;;;;;;;;;7.00;4.00;;;;;13.67;65.99;101730.97;5096480;27;45509;-58
2022/11/02 09:13:58;;;;;;;;;4.75;4.50;;;;;13.48;65.83;101693.97;5096398;27;45554;-60
2022/11/02 09:16:23;;;;;;;;;5.00;5.00;;;;;13.76;65.59;101731.63;5096462;27;46204;-59
2022/11/02 09:18:49;;;;;;;;;6.50;5.00;;;;;13.81;65.47;101724.41;5059929;27;45411;-59
2022/11/02 09:21:14;;;;;;;;;8.00;3.50;;;;;13.83;64.96;101727.78;5096397;27;45401;-56
2022/11/02 09:23:40;;;;;;;;;3.00;2.00;;;;;13.82;64.78;101711.44;5095374;27;45352;-61
2022/11/02 09:26:06;;;;;;;;;5.00;4.00;;;;;13.90;64.51;101724.19;5094051;27;45933;-60
2022/11/02 09:28:31;;;;;;;;;5.75;4.25;;;;;13.93;64.40;101715.53;5094106;27;45793;-58
2022/11/02 09:30:57;;;;;;;;;5.25;3.75;;;;;13.96;64.36;101712.31;5091067;27;45364;-59
2022/11/02 09:33:22;;;;;;;;;4.50;3.00;;;;;13.92;64.22;101713.78;5037067;27;45874;-60
2022/11/02 09:35:48;;;;;;;;;7.50;4.00;;;;;13.82;64.65;101686.63;5056686;28;45572;-61
2022/11/02 09:38:13;;;;;;;;;7.50;5.25;;;;;14.01;64.26;101715.31;5071537;28;45451;-60
2022/11/02 09:40:42;;;;;;;;;2.00;2.00;;;;;14.00;64.85;101716.38;5042222;28;45888;-62
2022/11/02 09:43:07;;;;;;;;;2.60;2.20;;;;;13.67;64.88;101662.84;5054580;28;45712;-64
2022/11/02 09:45:46;;;;;;;;;4.00;3.00;;;;;14.06;65.03;101721.03;5051099;28;47334;-59
2022/11/02 09:48:17;;;;;;;;;5.40;3.80;;;;;14.06;65.40;101711.91;5050464;28;45387;-60
2022/11/02 09:51:16;;;;;;;;;7.20;4.00;;;;;14.12;64.94;101713.81;5051863;28;45540;-61
2022/11/02 09:54:02;;;;;;;;;6.40;3.40;;;;;14.25;64.59;101714.88;5056503;27;45600;-61
2022/11/02 09:56:28;;;;;;;;;4.00;3.00;;;;;14.30;64.58;101709.56;5033850;28;46676;-58
2022/11/02 09:59:02;;;;;;;;;9.60;3.80;;;;;14.35;64.54;101712.53;5050274;28;45467;-59
2022/11/02 10:01:34;;;;;;;;;3.20;3.00;;;;;14.44;64.48;101710.41;5051584;28;45373;-62
2022/11/02 10:04:21;;;;;;;;;5.20;4.40;;;;;14.49;64.02;101711.47;5050259;28;45345;-59
2022/11/02 10:06:54;;;;;;;;;5.80;3.20;;;;;14.39;64.17;101694.47;5050090;28;45604;-59
2022/11/02 10:09:36;;;;;;;;;5.40;4.00;;;;;14.34;64.11;101681.31;5032786;28;45498;-59
2022/11/02 10:12:08;;;;;;;;;5.60;3.40;;;;;14.61;63.58;101719.94;5050379;28;46084;-63
2022/11/02 10:14:39;;;;;;;;;8.20;4.40;;;;;14.79;63.23;101715.69;5013158;28;46235;-66
2022/11/02 10:17:16;;;;;;;;;7.00;5.40;;;;;14.95;63.23;101713.50;5029669;28;47040;-62
2022/11/02 10:19:45;;;;;;;;;5.60;4.00;;;;;14.83;62.22;101666.38;5027387;28;45740;-65
2022/11/02 10:22:12;;;;;;;;;3.80;2.60;;;;;15.27;62.04;101708.91;5027444;28;45430;-64
2022/11/02 10:24:42;;;;;;;;;8.00;4.20;;;;;15.50;61.46;101710.28;5049629;28;45788;-65
2022/11/02 10:27:35;;;;;;;;;5.60;3.60;;;;;15.79;60.78;101713.50;5033260;28;47213;-63
2022/11/02 10:30:14;;;;;;;;;7.20;4.60;;;;;16.27;59.35;101716.78;5030555;28;46238;-65
2022/11/02 10:32:41;;;;;;;;;9.40;5.00;;;;;17.36;56.71;101694.28;5034100;28;45457;-64
2022/11/02 10:35:21;;;;;;;;;4.40;3.00;;;;;20.02;50.87;101711.16;5050165;28;45668;-62
2022/11/02 10:38:19;;;;;;;;;2.00;2.00;;;;;21.92;45.71;101699.97;5049804;28;46049;-62
2022/11/02 10:41:18;;;;;;;;;6.00;2.80;;;;;22.20;43.55;101700.75;5050372;28;45607;-70
2022/11/02 10:44:02;;;;;;;;;5.60;2.20;;;;;22.88;42.66;101704.00;5050866;28;45454;-65
2022/11/02 10:46:30;;;;;;;;;4.40;3.60;;;;;24.39;39.32;101698.72;5031300;28;45822;-63
2022/11/02 10:49:27;;;;;;;;;3.40;2.60;;;;;25.63;36.93;101698.25;5031042;28;45476;-65
2022/11/02 10:51:52;;;;;;;;;4.00;2.80;;;;;26.38;35.48;101667.25;5029544;28;45599;-64
2022/11/02 10:54:18;;;;;;;;;4.00;3.00;;;;;27.03;33.99;101696.09;5013110;28;45869;-63
2022/11/02 10:56:47;;;;;;;;;4.50;3.25;;;;;27.56;33.56;101692.25;5048830;28;45372;-61
2022/11/02 10:59:14;;;;;;;;;5.40;4.40;;;;;29.40;31.43;101688.56;5051218;28;46451;-64
2022/11/02 11:02:01;;;;;;;;;4.60;3.00;;;;;31.32;28.76;101680.66;5032909;28;45795;-67
2022/11/02 11:04:28;;;;;;;;;3.80;2.00;;;;;31.97;27.05;101655.28;5043917;28;45720;-69
2022/11/02 11:06:54;;;;;;;;;7.20;5.20;;;;;32.68;25.67;101677.75;5032881;28;45371;-62
2022/11/02 11:09:19;;;;;;;;;3.00;3.00;;;;;33.45;25.63;101667.41;5048383;28;47854;-63
2022/11/02 11:12:19;;;;;;;;;5.00;2.75;;;;;34.55;24.83;101658.72;5048921;28;45580;-63
2022/11/02 11:14:58;;;;;;;;;3.00;3.00;;;;;35.12;23.86;101661.81;5049035;28;45486;-65
2022/11/02 11:17:34;;;;;;;;;7.00;4.00;;;;;35.51;22.67;101653.59;5016081;28;45738;-69
2022/11/02 11:20:00;;;;;;;;;4.80;3.00;;;;;36.12;22.46;101650.00;5032038;28;45629;-62
2022/11/02 11:22:36;;;;;;;;;2.60;2.00;;;;;36.43;21.45;101649.16;5039971;28;45589;-63
2022/11/02 11:25:25;;;;;;;;;4.80;3.40;;;;;36.72;21.58;101652.78;5031959;28;45834;-63
2022/11/02 11:27:55;;;;;;;;;2.00;1.20;;;;;37.27;19.96;101652.00;5072531;27;45462;-62
2022/11/02 11:30:31;;;;;;;;;3.80;2.80;;;;;36.08;21.32;101641.31;5048764;28;46251;-63
2022/11/02 11:32:58;;;;;;;;;3.60;3.00;;;;;35.45;22.55;101628.53;5034094;28;45954;-63
2022/11/02 11:35:27;;;;;;;;;3.20;3.00;;;;;36.50;21.42;101648.53;5050817;28;45508;-61
2022/11/02 11:38:00;;;;;;;;;2.40;2.40;;;;;37.21;21.08;101630.59;5035777;28;45536;-61
2022/11/02 11:40:26;;;;;;;;;4.80;2.60;;;;;37.48;20.03;101645.06;5052436;28;45447;-61
2022/11/02 11:42:52;;;;;;;;;1.50;1.50;;;;;37.96;19.49;101638.22;5035523;28;45422;-62
2022/11/02 11:45:25;;;;;;;;;2.60;1.60;;;;;38.61;19.61;101633.66;5054444;28;45394;-60